Time;durP1;ratioP1;P1;durP2;ratioP2;P2;SDS_P1;SDS_P2;PMS_P1;PMS_P2;Temp;Humidity;BMP_temperature;BMP_pressure;BME280_temperature;BME280_humidity;BME280_pressure;Samples;Min_cycle;Max_cycle;Signal;HPM_P1;HPM_P2
2023/06/02 00:01:53;;;;;;;5.23;4.73;;;;;;;;;;5138486;27;20538;-78
2023/06/02 00:04:23;;;;;;;7.70;4.97;;;;;;;;;;5138921;27;20455;-77
2023/06/02 00:07:03;;;;;;;5.10;4.60;;;;;;;;;;5140802;27;20985;-78
2023/06/02 00:09:31;;;;;;;5.07;4.57;;;;;;;;;;5141922;27;20465;-77
2023/06/02 00:12:01;;;;;;;5.40;4.83;;;;;;;;;;5127739;27;20485;-78
2023/06/02 00:14:32;;;;;;;4.97;4.47;;;;;;;;;;5118979;28;20430;-77
2023/06/02 00:17:11;;;;;;;5.97;4.70;;;;;;;;;;5118306;28;20451;-78
2023/06/02 00:19:43;;;;;;;6.80;4.67;;;;;;;;;;5119100;28;20447;-77
2023/06/02 00:22:15;;;;;;;5.27;4.77;;;;;;;;;;5119170;28;20489;-76
2023/06/02 00:24:46;;;;;;;5.20;4.70;;;;;;;;;;5118308;28;20597;-76
2023/06/02 00:27:22;;;;;;;4.60;4.30;;;;;;;;;;5118096;28;20447;-77
2023/06/02 00:29:53;;;;;;;5.17;4.67;;;;;;;;;;5118091;28;20495;-77
2023/06/02 00:32:21;;;;;;;5.20;4.70;;;;;;;;;;5118344;28;20463;-77
2023/06/02 00:34:49;;;;;;;5.23;4.83;;;;;;;;;;5118369;28;20550;-77
2023/06/02 00:37:21;;;;;;;5.13;4.70;;;;;;;;;;5118299;28;20450;-77
2023/06/02 00:39:50;;;;;;;5.10;4.70;;;;;;;;;;5137185;27;20507;-78
2023/06/02 00:42:20;;;;;;;4.73;4.43;;;;;;;;;;5143402;27;20469;-76
2023/06/02 00:44:48;;;;;;;5.00;4.60;;;;;;;;;;5143067;27;20434;-78
2023/06/02 00:47:16;;;;;;;5.73;5.23;;;;;;;;;;5143860;27;20524;-78
2023/06/02 00:49:44;;;;;;;6.17;5.57;;;;;;;;;;5145664;27;20453;-78
2023/06/02 00:52:15;;;;;;;7.77;5.10;;;;;;;;;;5144013;27;20466;-76
2023/06/02 00:55:02;;;;;;;6.63;5.50;;;;;;;;;;5143425;27;20433;-76
2023/06/02 00:57:34;;;;;;;5.90;5.13;;;;;;;;;;5141936;28;20457;-80
2023/06/02 01:00:05;;;;;;;5.83;5.33;;;;;;;;;;5140113;27;20457;-78
2023/06/02 01:02:36;;;;;;;5.87;5.27;;;;;;;;;;5140317;27;21250;-78
2023/06/02 01:05:06;;;;;;;5.23;4.73;;;;;;;;;;5140251;27;20454;-77
2023/06/02 01:07:37;;;;;;;5.50;5.00;;;;;;;;;;5141593;27;20467;-76
2023/06/02 01:10:05;;;;;;;6.60;5.23;;;;;;;;;;5140679;27;20470;-77
2023/06/02 01:12:39;;;;;;;7.23;5.60;;;;;;;;;;5142512;27;20456;-79
2023/06/02 01:15:13;;;;;;;5.77;5.27;;;;;;;;;;5142489;27;20965;-78
2023/06/02 01:17:45;;;;;;;7.20;4.90;;;;;;;;;;5147164;27;20445;-80
2023/06/02 01:23:08;;;;;;;5.80;5.23;;;;;;;;;;5142227;27;20487;-77
2023/06/02 01:25:39;;;;;;;5.53;5.03;;;;;;;;;;5145232;27;21057;-77
2023/06/02 01:28:07;;;;;;;5.47;4.93;;;;;;;;;;5148855;27;20446;-77
2023/06/02 01:30:36;;;;;;;5.37;4.87;;;;;;;;;;5148866;27;20488;-78
2023/06/02 01:33:07;;;;;;;6.53;5.93;;;;;;;;;;5146525;27;20437;-78
2023/06/02 01:35:39;;;;;;;6.13;5.20;;;;;;;;;;5143956;27;20517;-77
2023/06/02 01:38:08;;;;;;;6.53;5.73;;;;;;;;;;5142655;27;20446;-77
2023/06/02 01:40:42;;;;;;;10.37;6.17;;;;;;;;;;5145961;27;20465;-76
2023/06/02 01:43:11;;;;;;;8.60;5.50;;;;;;;;;;5144424;27;20465;-76
2023/06/02 01:45:39;;;;;;;7.93;5.83;;;;;;;;;;5144352;27;20477;-77
2023/06/02 01:48:15;;;;;;;5.27;4.87;;;;;;;;;;5147639;27;20450;-77
2023/06/02 01:50:44;;;;;;;7.17;5.30;;;;;;;;;;5146755;27;20465;-77
2023/06/02 01:53:12;;;;;;;7.80;5.70;;;;;;;;;;5145282;27;20472;-77
2023/06/02 01:55:42;;;;;;;5.57;5.07;;;;;;;;;;5142926;27;21040;-76
2023/06/02 01:58:17;;;;;;;6.10;5.40;;;;;;;;;;5138531;27;20510;-77
2023/06/02 02:01:01;;;;;;;7.47;6.13;;;;;;;;;;5117448;28;20470;-78
2023/06/02 02:03:37;;;;;;;6.50;5.90;;;;;;;;;;5116275;28;20481;-77
2023/06/02 02:06:07;;;;;;;7.23;5.50;;;;;;;;;;5116815;28;20446;-77
2023/06/02 02:08:41;;;;;;;6.43;5.87;;;;;;;;;;5117875;28;20508;-78
2023/06/02 02:11:11;;;;;;;7.27;6.00;;;;;;;;;;5120172;28;20474;-78
2023/06/02 02:13:39;;;;;;;8.03;6.07;;;;;;;;;;5118980;28;20450;-78
2023/06/02 02:16:10;;;;;;;5.63;5.13;;;;;;;;;;5118023;28;20476;-78
2023/06/02 02:18:40;;;;;;;7.33;6.07;;;;;;;;;;5118190;28;20624;-79
2023/06/02 02:21:08;;;;;;;5.57;5.07;;;;;;;;;;5137145;27;20481;-77
2023/06/02 02:23:37;;;;;;;6.70;6.10;;;;;;;;;;5140160;27;20897;-76
2023/06/02 02:26:09;;;;;;;5.80;5.30;;;;;;;;;;5141978;27;20446;-77
2023/06/02 02:29:00;;;;;;;5.80;5.20;;;;;;;;;;5141988;27;20513;-76
2023/06/02 02:31:37;;;;;;;6.77;6.07;;;;;;;;;;5140534;27;20484;-78
2023/06/02 02:34:07;;;;;;;6.47;5.73;;;;;;;;;;5140735;27;20418;-76
2023/06/02 02:36:39;;;;;;;7.13;5.60;;;;;;;;;;5141686;27;20452;-77
2023/06/02 02:39:12;;;;;;;8.17;5.90;;;;;;;;;;5140744;27;20491;-78
2023/06/02 02:41:48;;;;;;;6.70;6.10;;;;;;;;;;5139771;27;20472;-79
2023/06/02 02:44:22;;;;;;;7.07;6.47;;;;;;;;;;5139686;27;20560;-77
2023/06/02 02:46:53;;;;;;;5.97;5.37;;;;;;;;;;5139515;27;20537;-79
2023/06/02 02:49:30;;;;;;;7.10;6.40;;;;;;;;;;5140626;27;20524;-78
2023/06/02 02:52:02;;;;;;;6.00;5.50;;;;;;;;;;5141273;27;20481;-79
2023/06/02 02:54:33;;;;;;;6.90;6.30;;;;;;;;;;5141579;27;21137;-78
2023/06/02 02:57:01;;;;;;;8.53;6.23;;;;;;;;;;5138913;27;20453;-77
2023/06/02 02:59:33;;;;;;;8.23;6.70;;;;;;;;;;5139133;27;20450;-77
2023/06/02 03:02:02;;;;;;;7.30;6.47;;;;;;;;;;5138406;27;20474;-77
2023/06/02 03:04:32;;;;;;;8.30;5.67;;;;;;;;;;5138974;27;20555;-77
2023/06/02 03:07:08;;;;;;;7.00;6.40;;;;;;;;;;5138098;27;20740;-77
2023/06/02 03:09:39;;;;;;;7.17;6.43;;;;;;;;;;5137742;27;20475;-78
2023/06/02 03:12:07;;;;;;;6.10;5.50;;;;;;;;;;5136681;27;20840;-78
2023/06/02 03:14:40;;;;;;;7.17;6.47;;;;;;;;;;5137390;27;20459;-77
2023/06/02 03:17:13;;;;;;;6.03;5.53;;;;;;;;;;5136698;27;20462;-77
2023/06/02 03:19:41;;;;;;;8.53;6.63;;;;;;;;;;5130788;27;20889;-78
2023/06/02 03:22:14;;;;;;;7.73;6.87;;;;;;;;;;5119868;28;20473;-78
2023/06/02 03:24:43;;;;;;;7.23;6.53;;;;;;;;;;5120484;28;20450;-78
2023/06/02 03:27:15;;;;;;;6.93;6.33;;;;;;;;;;5118747;28;20537;-78
2023/06/02 03:29:46;;;;;;;8.97;5.43;;;;;;;;;;5117944;28;20466;-78
2023/06/02 03:32:20;;;;;;;8.70;7.20;;;;;;;;;;5118247;28;20471;-78
2023/06/02 03:34:51;;;;;;;12.97;7.40;;;;;;;;;;5117334;28;20451;-79
2023/06/02 03:37:25;;;;;;;8.20;6.50;;;;;;;;;;5118121;28;20504;-79
2023/06/02 03:40:04;;;;;;;8.50;6.57;;;;;;;;;;5117776;28;20470;-78
2023/06/02 03:42:37;;;;;;;7.53;6.80;;;;;;;;;;5118121;28;20442;-81
2023/06/02 03:48:01;;;;;;;7.57;6.30;;;;;;;;;;5107594;28;20485;-78
2023/06/02 03:50:41;;;;;;;8.83;7.17;;;;;;;;;;5134604;27;20469;-80
2023/06/02 03:53:10;;;;;;;8.67;7.77;;;;;;;;;;5152538;27;21163;-77
2023/06/02 03:55:38;;;;;;;7.90;6.37;;;;;;;;;;5135661;27;20446;-79
2023/06/02 03:58:12;;;;;;;8.90;6.40;;;;;;;;;;5136095;27;20446;-80
2023/06/02 04:00:48;;;;;;;9.23;7.50;;;;;;;;;;5135998;27;20964;-78
2023/06/02 04:03:16;;;;;;;8.73;7.83;;;;;;;;;;5137284;27;21011;-79
2023/06/02 04:05:51;;;;;;;8.13;6.50;;;;;;;;;;5133942;27;20550;-78
2023/06/02 04:08:19;;;;;;;8.50;7.70;;;;;;;;;;5138314;27;20596;-78
2023/06/02 04:10:50;;;;;;;7.30;6.60;;;;;;;;;;5137312;27;20454;-78
2023/06/02 04:13:18;;;;;;;7.90;7.10;;;;;;;;;;5136282;27;20525;-78
2023/06/02 04:15:50;;;;;;;9.57;7.93;;;;;;;;;;5136588;27;20465;-76
2023/06/02 04:18:21;;;;;;;10.13;7.60;;;;;;;;;;5135675;27;20473;-78
2023/06/02 04:20:50;;;;;;;8.30;7.43;;;;;;;;;;5134755;27;20474;-77
2023/06/02 04:23:20;;;;;;;10.00;7.30;;;;;;;;;;5135967;27;20553;-75
2023/06/02 04:25:48;;;;;;;9.10;7.63;;;;;;;;;;5135733;27;20422;-78
2023/06/02 04:28:22;;;;;;;8.00;7.30;;;;;;;;;;5134646;27;20454;-76
2023/06/02 04:30:56;;;;;;;8.23;7.43;;;;;;;;;;5134813;27;20570;-77
2023/06/02 04:33:27;;;;;;;8.70;7.90;;;;;;;;;;5135272;27;20641;-77
2023/06/02 04:35:56;;;;;;;12.63;8.17;;;;;;;;;;5135351;27;21089;-77
2023/06/02 04:38:29;;;;;;;9.10;8.17;;;;;;;;;;5137735;27;20533;-77
2023/06/02 04:41:06;;;;;;;9.60;7.97;;;;;;;;;;5138273;27;20469;-77
2023/06/02 04:43:35;;;;;;;9.17;8.27;;;;;;;;;;5138700;27;20492;-80
2023/06/02 04:46:08;;;;;;;10.80;8.53;;;;;;;;;;5140436;27;20450;-78
2023/06/02 04:48:40;;;;;;;9.50;8.60;;;;;;;;;;5141140;27;20450;-78
2023/06/02 04:51:08;;;;;;;9.80;8.90;;;;;;;;;;5140990;28;20454;-77
2023/06/02 04:53:42;;;;;;;12.67;9.00;;;;;;;;;;5137710;27;20778;-76
2023/06/02 04:56:11;;;;;;;8.83;7.93;;;;;;;;;;5133976;27;20443;-78
2023/06/02 04:58:38;;;;;;;9.97;8.97;;;;;;;;;;5134473;27;20436;-78
2023/06/02 05:01:08;;;;;;;9.60;8.70;;;;;;;;;;5135334;27;20563;-79
2023/06/02 05:03:35;;;;;;;12.63;8.67;;;;;;;;;;5143856;27;20564;-80
2023/06/02 05:06:03;;;;;;;13.20;8.27;;;;;;;;;;5151137;27;20770;-77
2023/06/02 05:08:30;;;;;;;9.47;8.57;;;;;;;;;;5151550;27;20457;-79
2023/06/02 05:10:57;;;;;;;9.13;8.20;;;;;;;;;;5151586;27;20458;-78
2023/06/02 05:13:27;;;;;;;10.57;9.07;;;;;;;;;;5150674;27;20473;-78
2023/06/02 05:15:55;;;;;;;10.07;9.07;;;;;;;;;;5151246;27;20449;-77
2023/06/02 05:18:23;;;;;;;9.83;8.80;;;;;;;;;;5149804;27;20456;-78
2023/06/02 05:20:54;;;;;;;9.70;8.70;;;;;;;;;;5146054;27;20462;-77
2023/06/02 05:23:24;;;;;;;12.67;9.30;;;;;;;;;;5145851;27;20526;-77
2023/06/02 05:25:55;;;;;;;14.50;7.90;;;;;;;;;;5143403;27;20450;-77
2023/06/02 05:28:24;;;;;;;9.73;8.70;;;;;;;;;;5141785;27;20454;-77
2023/06/02 05:30:55;;;;;;;9.80;8.33;;;;;;;;;;5141399;27;20474;-77
2023/06/02 05:33:28;;;;;;;10.77;9.67;;;;;;;;;;5139585;27;20452;-79
2023/06/02 05:36:02;;;;;;;9.43;8.53;;;;;;;;;;5139990;27;20459;-79
2023/06/02 05:38:31;;;;;;;9.80;8.90;;;;;;;;;;5141832;27;20475;-78
2023/06/02 05:41:08;;;;;;;10.43;9.07;;;;;;;;;;5147022;27;20481;-77
2023/06/02 05:43:36;;;;;;;9.63;8.63;;;;;;;;;;5149453;27;20468;-78
2023/06/02 05:46:08;;;;;;;10.50;8.67;;;;;;;;;;5145272;27;20472;-78
2023/06/02 05:48:47;;;;;;;11.03;9.53;;;;;;;;;;5147921;27;20446;-78
2023/06/02 05:51:16;;;;;;;10.17;9.27;;;;;;;;;;5145555;27;20530;-78
2023/06/02 05:53:49;;;;;;;10.53;9.50;;;;;;;;;;5142220;27;20532;-79
2023/06/02 05:56:21;;;;;;;8.73;7.77;;;;;;;;;;5144938;27;20434;-78
2023/06/02 05:58:49;;;;;;;10.20;8.80;;;;;;;;;;5145803;27;20545;-79
2023/06/02 06:01:17;;;;;;;9.57;8.67;;;;;;;;;;5145628;27;20477;-78
2023/06/02 06:03:56;;;;;;;8.73;7.93;;;;;;;;;;5144847;27;20562;-77
2023/06/02 06:06:32;;;;;;;11.40;9.47;;;;;;;;;;5149058;27;20806;-77
2023/06/02 06:11:43;;;;;;;10.43;9.23;;;;;;;;;;5145705;27;21015;-78
2023/06/02 06:14:11;;;;;;;9.80;8.40;;;;;;;;;;5151888;27;20445;-78
2023/06/02 06:16:42;;;;;;;9.43;8.53;;;;;;;;;;5150284;27;20508;-80
2023/06/02 06:19:12;;;;;;;10.30;8.30;;;;;;;;;;5148387;27;20483;-77
2023/06/02 06:21:41;;;;;;;9.33;8.43;;;;;;;;;;5127364;27;20538;-77
2023/06/02 06:24:09;;;;;;;10.70;9.70;;;;;;;;;;5123534;28;20473;-78
2023/06/02 06:26:37;;;;;;;11.17;8.73;;;;;;;;;;5121090;28;20485;-77
2023/06/02 06:29:06;;;;;;;9.97;8.97;;;;;;;;;;5123240;28;20464;-77
2023/06/02 06:31:34;;;;;;;10.37;9.37;;;;;;;;;;5124579;28;20471;-76
2023/06/02 06:34:08;;;;;;;9.27;7.73;;;;;;;;;;5123579;28;20466;-77
2023/06/02 06:36:41;;;;;;;10.00;8.70;;;;;;;;;;5125143;28;20454;-77
2023/06/02 06:39:09;;;;;;;9.70;8.70;;;;;;;;;;5146688;27;20430;-78
2023/06/02 06:41:40;;;;;;;10.30;9.20;;;;;;;;;;5137033;27;20497;-77
2023/06/02 06:44:16;;;;;;;9.67;8.77;;;;;;;;;;5146444;27;20465;-77
2023/06/02 06:46:44;;;;;;;9.70;8.80;;;;;;;;;;5145895;27;20454;-77
2023/06/02 06:49:11;;;;;;;9.47;8.57;;;;;;;;;;5147087;27;20457;-77
2023/06/02 06:51:42;;;;;;;9.10;8.30;;;;;;;;;;5144389;27;20825;-78
2023/06/02 06:54:10;;;;;;;10.93;9.90;;;;;;;;;;5144146;27;20438;-77
2023/06/02 06:56:38;;;;;;;10.27;8.67;;;;;;;;;;5145470;27;20471;-78
2023/06/02 06:59:07;;;;;;;11.07;9.20;;;;;;;;;;5146136;27;20457;-78
2023/06/02 07:01:35;;;;;;;8.77;7.87;;;;;;;;;;5146994;27;20458;-76
2023/06/02 07:04:12;;;;;;;9.53;8.33;;;;;;;;;;5147665;27;20477;-77
2023/06/02 07:06:41;;;;;;;11.97;9.40;;;;;;;;;;5148435;27;20537;-77
2023/06/02 07:09:12;;;;;;;10.23;9.17;;;;;;;;;;5148463;27;20442;-79
2023/06/02 07:11:40;;;;;;;10.40;8.77;;;;;;;;;;5143350;27;20484;-78
2023/06/02 07:14:08;;;;;;;8.50;7.67;;;;;;;;;;5146818;27;20502;-79
2023/06/02 07:16:45;;;;;;;9.30;8.30;;;;;;;;;;5142640;27;20440;-78
2023/06/02 07:19:12;;;;;;;10.13;9.20;;;;;;;;;;5136659;27;20853;-79
2023/06/02 07:21:42;;;;;;;9.30;8.40;;;;;;;;;;5136333;27;20529;-77
2023/06/02 07:24:10;;;;;;;9.60;8.23;;;;;;;;;;5135937;27;20526;-80
2023/06/02 07:26:39;;;;;;;9.93;8.83;;;;;;;;;;5136805;27;20941;-78
2023/06/02 07:29:07;;;;;;;9.03;7.90;;;;;;;;;;5135387;27;20535;-79
2023/06/02 07:31:40;;;;;;;11.37;8.40;;;;;;;;;;5135763;27;20495;-78
2023/06/02 07:34:10;;;;;;;9.90;8.93;;;;;;;;;;5135407;27;20450;-79
2023/06/02 07:36:38;;;;;;;8.77;7.87;;;;;;;;;;5131062;27;20453;-79
2023/06/02 07:39:07;;;;;;;10.47;9.20;;;;;;;;;;5114990;28;20455;-79
2023/06/02 07:41:40;;;;;;;11.00;8.87;;;;;;;;;;5113743;28;21114;-78
2023/06/02 07:44:08;;;;;;;8.87;7.73;;;;;;;;;;5114576;27;20503;-77
2023/06/02 07:46:36;;;;;;;10.10;9.20;;;;;;;;;;5145248;27;20446;-78
2023/06/02 07:49:09;;;;;;;9.30;8.50;;;;;;;;;;5150377;27;20540;-78
2023/06/02 07:51:36;;;;;;;9.53;8.63;;;;;;;;;;5149299;27;20458;-80
2023/06/02 07:54:03;;;;;;;9.90;8.80;;;;;;;;;;5147518;27;20449;-77
2023/06/02 07:56:38;;;;;;;10.83;8.20;;;;;;;;;;5149810;27;20498;-78
2023/06/02 07:59:06;;;;;;;8.90;8.07;;;;;;;;;;5145252;27;20529;-77
2023/06/02 08:01:43;;;;;;;8.93;8.13;;;;;;;;;;5142705;27;20497;-77
2023/06/02 08:04:15;;;;;;;9.20;8.40;;;;;;;;;;5138748;27;20469;-78
2023/06/02 08:06:45;;;;;;;9.80;8.90;;;;;;;;;;5136077;27;20910;-77
2023/06/02 08:09:16;;;;;;;12.03;9.10;;;;;;;;;;5135943;27;20446;-76
2023/06/02 08:11:52;;;;;;;10.03;9.10;;;;;;;;;;5135739;27;20470;-76
2023/06/02 08:14:21;;;;;;;9.60;8.70;;;;;;;;;;5136848;27;20816;-78
2023/06/02 08:16:55;;;;;;;9.97;9.07;;;;;;;;;;5141803;27;20430;-77
2023/06/02 08:19:35;;;;;;;8.23;7.40;;;;;;;;;;5137332;27;20489;-76
2023/06/02 08:22:11;;;;;;;9.30;8.47;;;;;;;;;;5138979;27;20466;-78
2023/06/02 08:27:45;;;;;;;9.40;8.50;;;;;;;;;;5113505;27;20414;-77
2023/06/02 08:30:16;;;;;;;8.90;8.20;;;;;;;;;;5147215;27;20738;-77
2023/06/02 08:32:59;;;;;;;9.40;8.50;;;;;;;;;;5150077;27;20441;-77
2023/06/02 08:35:28;;;;;;;9.53;8.07;;;;;;;;;;5151952;27;20421;-78
2023/06/02 08:38:02;;;;;;;9.10;8.20;;;;;;;;;;5151412;27;20464;-77
2023/06/02 08:40:36;;;;;;;9.20;8.40;;;;;;;;;;5151265;27;20474;-76
2023/06/02 08:43:12;;;;;;;9.33;8.43;;;;;;;;;;5151488;27;20453;-77
2023/06/02 08:45:41;;;;;;;9.80;9.00;;;;;;;;;;5152160;27;20501;-78
2023/06/02 08:48:10;;;;;;;9.07;8.30;;;;;;;;;;5151912;27;20458;-77
2023/06/02 08:50:41;;;;;;;8.23;7.60;;;;;;;;;;5152285;27;20458;-78
2023/06/02 08:53:13;;;;;;;8.57;7.77;;;;;;;;;;5151030;28;20442;-77
2023/06/02 08:55:42;;;;;;;12.23;8.50;;;;;;;;;;5142384;27;20574;-76
2023/06/02 08:58:20;;;;;;;9.70;8.50;;;;;;;;;;5141017;27;20537;-80
2023/06/02 09:00:51;;;;;;;10.33;9.37;;;;;;;;;;5142090;27;20462;-77
2023/06/02 09:03:34;;;;;;;9.23;8.40;;;;;;;;;;5144970;27;20454;-78
2023/06/02 09:06:23;;;;;;;9.73;8.67;;;;;;;;;;5146941;27;20480;-76
2023/06/02 09:08:56;;;;;;;9.57;8.43;;;;;;;;;;5148440;27;20509;-80
2023/06/02 09:11:27;;;;;;;9.30;8.50;;;;;;;;;;5148776;27;20457;-78
2023/06/02 09:14:00;;;;;;;9.37;8.43;;;;;;;;;;5139031;27;20445;-80
2023/06/02 09:16:37;;;;;;;8.07;7.37;;;;;;;;;;5136028;27;20490;-76
2023/06/02 09:19:08;;;;;;;11.20;9.10;;;;;;;;;;5138167;27;20540;-79
2023/06/02 09:21:43;;;;;;;9.23;8.33;;;;;;;;;;5121517;28;20501;-78
2023/06/02 09:24:17;;;;;;;9.07;8.27;;;;;;;;;;5121270;28;20472;-75
2023/06/02 09:26:55;;;;;;;9.50;8.70;;;;;;;;;;5121461;28;20469;-77
2023/06/02 09:32:20;;;;;;;9.00;8.20;;;;;;;;;;5116444;28;20471;-77
2023/06/02 09:34:48;;;;;;;10.10;8.60;;;;;;;;;;5117869;28;20447;-78
2023/06/02 09:37:17;;;;;;;9.50;8.57;;;;;;;;;;5119587;28;20453;-79
2023/06/02 09:39:53;;;;;;;9.30;8.40;;;;;;;;;;5119443;28;20492;-79
2023/06/02 09:42:22;;;;;;;9.30;8.50;;;;;;;;;;5119682;28;20474;-77
2023/06/02 09:45:08;;;;;;;9.37;8.00;;;;;;;;;;5120211;28;20474;-79
2023/06/02 09:47:40;;;;;;;9.33;8.53;;;;;;;;;;5122419;28;20458;-77
2023/06/02 09:50:09;;;;;;;9.40;8.60;;;;;;;;;;5123959;28;20454;-77
2023/06/02 09:52:41;;;;;;;9.77;8.77;;;;;;;;;;5124134;28;20451;-79
2023/06/02 09:55:10;;;;;;;9.27;8.37;;;;;;;;;;5124316;28;20478;-79
2023/06/02 09:57:40;;;;;;;9.43;8.60;;;;;;;;;;5122715;28;20438;-80
2023/06/02 10:00:14;;;;;;;9.43;8.63;;;;;;;;;;5124339;28;20461;-78
2023/06/02 10:02:47;;;;;;;10.23;9.27;;;;;;;;;;5124795;28;20458;-78
2023/06/02 10:05:20;;;;;;;10.60;9.40;;;;;;;;;;5124707;28;20486;-80
2023/06/02 10:07:51;;;;;;;9.10;8.30;;;;;;;;;;5124609;28;20451;-78
2023/06/02 10:10:23;;;;;;;10.43;9.40;;;;;;;;;;5124485;27;20493;-79
2023/06/02 10:13:11;;;;;;;8.93;8.10;;;;;;;;;;5124491;28;20452;-78
2023/06/02 10:15:55;;;;;;;10.40;7.87;;;;;;;;;;5125160;28;20503;-78
2023/06/02 10:18:49;;;;;;;8.23;7.53;;;;;;;;;;5126084;28;20447;-78
2023/06/02 10:21:20;;;;;;;8.80;8.00;;;;;;;;;;5126310;28;21096;-80
2023/06/02 10:23:53;;;;;;;9.37;7.30;;;;;;;;;;5125729;28;20438;-81
2023/06/02 10:26:28;;;;;;;8.73;8.03;;;;;;;;;;5128160;28;20467;-78
2023/06/02 10:28:56;;;;;;;8.50;7.73;;;;;;;;;;5128124;28;20466;-79
2023/06/02 10:31:34;;;;;;;9.00;8.20;;;;;;;;;;5125276;28;20470;-78
2023/06/02 10:34:07;;;;;;;8.43;7.60;;;;;;;;;;5121574;28;20446;-77
2023/06/02 10:36:50;;;;;;;9.30;8.07;;;;;;;;;;5118279;28;20473;-78
2023/06/02 10:39:48;;;;;;;8.83;8.10;;;;;;;;;;5119890;28;20533;-77
2023/06/02 10:42:21;;;;;;;8.57;7.37;;;;;;;;;;5120222;28;20459;-78
2023/06/02 10:44:51;;;;;;;7.63;6.93;;;;;;;;;;5129191;28;20489;-79
2023/06/02 10:47:42;;;;;;;7.67;7.07;;;;;;;;;;5128954;28;20533;-79
2023/06/02 10:50:21;;;;;;;6.87;6.37;;;;;;;;;;5129479;28;20423;-77
2023/06/02 10:53:24;;;;;;;8.33;7.47;;;;;;;;;;5129568;28;20461;-79
2023/06/02 10:55:59;;;;;;;8.73;8.03;;;;;;;;;;5108368;28;20439;-79
2023/06/02 10:58:42;;;;;;;8.00;6.17;;;;;;;;;;5127468;28;21003;-77
2023/06/02 11:01:15;;;;;;;13.40;7.23;;;;;;;;;;5126059;28;20523;-78
2023/06/02 11:03:44;;;;;;;7.83;7.13;;;;;;;;;;5125516;28;20473;-77
2023/06/02 11:06:31;;;;;;;8.57;7.77;;;;;;;;;;5126233;28;20479;-78
2023/06/02 11:09:20;;;;;;;7.70;7.00;;;;;;;;;;5126754;28;20522;-79
2023/06/02 11:12:03;;;;;;;8.33;7.17;;;;;;;;;;5124849;28;20504;-79
2023/06/02 11:15:00;;;;;;;7.27;6.67;;;;;;;;;;5124798;28;20459;-78
2023/06/02 11:17:35;;;;;;;8.17;7.57;;;;;;;;;;5125813;28;20473;-77
2023/06/02 11:20:07;;;;;;;7.27;6.67;;;;;;;;;;5124199;28;20442;-76
2023/06/02 11:22:51;;;;;;;6.07;5.67;;;;;;;;;;5122504;27;20500;-77
2023/06/02 11:25:22;;;;;;;7.77;6.27;;;;;;;;;;5121108;28;20474;-77
2023/06/02 11:27:52;;;;;;;6.40;5.80;;;;;;;;;;5123009;28;20513;-79
2023/06/02 11:30:27;;;;;;;9.17;6.30;;;;;;;;;;5124062;28;20504;-76
2023/06/02 11:33:07;;;;;;;7.17;6.67;;;;;;;;;;5123113;28;20518;-79
2023/06/02 11:35:46;;;;;;;8.60;6.30;;;;;;;;;;5128465;28;20534;-77
2023/06/02 11:38:31;;;;;;;7.77;7.00;;;;;;;;;;5130550;28;20447;-76
2023/06/02 11:41:09;;;;;;;11.37;6.53;;;;;;;;;;5125689;28;20475;-76
2023/06/02 11:43:47;;;;;;;6.50;6.00;;;;;;;;;;5119655;28;20454;-76
2023/06/02 11:46:20;;;;;;;7.00;6.40;;;;;;;;;;5120952;28;20500;-76
2023/06/02 11:48:53;;;;;;;6.93;6.03;;;;;;;;;;5121585;28;20443;-77
2023/06/02 11:51:30;;;;;;;6.67;6.27;;;;;;;;;;5121940;28;20467;-77
2023/06/02 11:54:07;;;;;;;6.50;5.90;;;;;;;;;;5123148;28;20446;-76
2023/06/02 11:56:38;;;;;;;5.97;5.47;;;;;;;;;;5121721;28;20457;-76
2023/06/02 11:59:21;;;;;;;6.63;5.97;;;;;;;;;;5121183;28;20475;-78
2023/06/02 12:01:49;;;;;;;9.83;5.83;;;;;;;;;;5120951;28;20501;-78
2023/06/02 12:04:23;;;;;;;8.30;6.40;;;;;;;;;;5119378;28;20656;-77
2023/06/02 12:07:01;;;;;;;7.03;6.33;;;;;;;;;;5117588;28;20558;-77
2023/06/02 12:09:43;;;;;;;6.77;6.17;;;;;;;;;;5117063;28;20472;-77
2023/06/02 12:12:17;;;;;;;6.60;6.10;;;;;;;;;;5115653;28;20896;-77
2023/06/02 12:14:55;;;;;;;6.20;5.80;;;;;;;;;;5114925;28;20487;-77
2023/06/02 12:17:31;;;;;;;6.37;5.87;;;;;;;;;;5112737;28;20442;-78
2023/06/02 12:19:59;;;;;;;6.03;5.53;;;;;;;;;;5111995;28;20507;-76
2023/06/02 12:22:39;;;;;;;6.23;5.70;;;;;;;;;;5111901;28;20978;-75
2023/06/02 12:25:17;;;;;;;6.13;5.53;;;;;;;;;;5111524;28;20869;-77
2023/06/02 12:27:51;;;;;;;6.10;5.60;;;;;;;;;;5111529;28;21008;-80
2023/06/02 12:30:26;;;;;;;5.97;5.47;;;;;;;;;;5112107;28;20508;-77
2023/06/02 12:32:57;;;;;;;7.20;6.00;;;;;;;;;;5111604;28;20445;-78
2023/06/02 12:35:39;;;;;;;7.33;6.70;;;;;;;;;;5112007;28;20493;-76
2023/06/02 12:38:13;;;;;;;5.87;5.47;;;;;;;;;;5112569;28;20447;-77
2023/06/02 12:41:02;;;;;;;6.20;5.70;;;;;;;;;;5112991;28;20550;-77
2023/06/02 12:43:37;;;;;;;7.60;5.53;;;;;;;;;;5113769;28;20447;-76
2023/06/02 12:46:18;;;;;;;6.03;5.53;;;;;;;;;;5113427;28;20993;-77
2023/06/02 12:48:56;;;;;;;6.10;5.50;;;;;;;;;;5113058;28;20485;-77
2023/06/02 12:51:48;;;;;;;6.03;5.17;;;;;;;;;;5114187;28;20474;-78
2023/06/02 12:54:21;;;;;;;5.77;5.23;;;;;;;;;;5114458;28;20450;-76
2023/06/02 12:56:51;;;;;;;6.47;6.00;;;;;;;;;;5115582;28;20442;-77
2023/06/02 12:59:21;;;;;;;6.17;5.67;;;;;;;;;;5116261;28;20552;-78
2023/06/02 13:02:01;;;;;;;5.83;5.20;;;;;;;;;;5115231;28;20467;-78
2023/06/02 13:07:35;;;;;;;5.70;5.20;;;;;;;;;;5113603;28;20462;-79
2023/06/02 13:10:16;;;;;;;5.63;5.23;;;;;;;;;;5116183;28;20420;-77
2023/06/02 13:12:58;;;;;;;4.97;4.57;;;;;;;;;;5116604;28;20453;-78
2023/06/02 13:15:28;;;;;;;5.90;5.40;;;;;;;;;;5115364;28;20477;-77
2023/06/02 13:18:00;;;;;;;5.47;5.07;;;;;;;;;;5115415;28;20934;-77
2023/06/02 13:20:34;;;;;;;5.20;4.83;;;;;;;;;;5116901;28;20462;-78
2023/06/02 13:23:14;;;;;;;5.50;5.00;;;;;;;;;;5121372;28;20497;-78
2023/06/02 13:25:45;;;;;;;4.77;4.37;;;;;;;;;;5124097;28;20477;-78
2023/06/02 13:28:26;;;;;;;5.87;5.40;;;;;;;;;;5122761;28;20410;-79
2023/06/02 13:31:01;;;;;;;6.13;5.47;;;;;;;;;;5124705;28;20473;-78
2023/06/02 13:33:36;;;;;;;4.93;4.63;;;;;;;;;;5125997;28;20446;-78
2023/06/02 13:36:05;;;;;;;5.67;5.27;;;;;;;;;;5122307;28;20503;-77
2023/06/02 13:38:42;;;;;;;5.20;4.80;;;;;;;;;;5122959;28;20457;-77
2023/06/02 13:41:14;;;;;;;5.70;5.30;;;;;;;;;;5122782;28;20500;-76
2023/06/02 13:43:42;;;;;;;7.00;4.87;;;;;;;;;;5123415;28;20451;-75
2023/06/02 13:46:17;;;;;;;7.90;5.53;;;;;;;;;;5120351;28;20474;-77
2023/06/02 13:48:45;;;;;;;6.13;4.57;;;;;;;;;;5124240;27;20465;-78
2023/06/02 13:51:13;;;;;;;5.00;4.70;;;;;;;;;;5128485;28;20471;-75
2023/06/02 13:53:43;;;;;;;5.97;5.47;;;;;;;;;;5123549;28;20455;-76
2023/06/02 13:56:24;;;;;;;6.33;5.20;;;;;;;;;;5124667;28;20465;-77
2023/06/02 13:58:56;;;;;;;5.63;5.23;;;;;;;;;;5125798;28;20438;-79
2023/06/02 14:01:33;;;;;;;5.67;5.17;;;;;;;;;;5128418;28;20470;-79
2023/06/02 14:04:07;;;;;;;6.03;4.67;;;;;;;;;;5127367;28;20434;-77
2023/06/02 14:06:38;;;;;;;4.97;4.40;;;;;;;;;;5126894;28;20481;-76
2023/06/02 14:09:10;;;;;;;5.70;5.30;;;;;;;;;;5124093;28;21015;-76
2023/06/02 14:11:41;;;;;;;5.57;4.63;;;;;;;;;;5128618;28;20496;-77
2023/06/02 14:14:11;;;;;;;5.30;4.90;;;;;;;;;;5125806;28;20453;-77
2023/06/02 14:16:41;;;;;;;5.90;5.30;;;;;;;;;;5131545;28;20435;-76
2023/06/02 14:22:01;;;;;;;5.53;4.77;;;;;;;;;;5125357;28;20550;-78
2023/06/02 14:24:32;;;;;;;4.70;4.40;;;;;;;;;;5119586;28;20479;-79
2023/06/02 14:27:14;;;;;;;5.60;5.10;;;;;;;;;;5118324;28;20914;-78
2023/06/02 14:29:43;;;;;;;6.63;5.10;;;;;;;;;;5119350;28;20613;-77
2023/06/02 14:32:19;;;;;;;5.80;5.30;;;;;;;;;;5117017;28;20478;-78
2023/06/02 14:35:02;;;;;;;5.37;4.97;;;;;;;;;;5115953;27;20450;-78
2023/06/02 14:37:35;;;;;;;5.00;4.70;;;;;;;;;;5116860;28;20446;-76
2023/06/02 14:40:11;;;;;;;5.20;4.90;;;;;;;;;;5116671;28;20458;-78
2023/06/02 14:42:57;;;;;;;5.00;4.53;;;;;;;;;;5116287;28;20962;-79
2023/06/02 14:45:32;;;;;;;5.43;4.70;;;;;;;;;;5117768;28;20461;-76
2023/06/02 14:48:01;;;;;;;4.93;4.53;;;;;;;;;;5121915;28;21001;-76
2023/06/02 14:50:35;;;;;;;5.90;5.40;;;;;;;;;;5122965;28;20562;-81
2023/06/02 14:53:04;;;;;;;5.80;5.33;;;;;;;;;;5122832;28;20455;-77
2023/06/02 14:55:34;;;;;;;5.77;5.30;;;;;;;;;;5121787;27;20513;-79
2023/06/02 14:58:14;;;;;;;5.70;5.30;;;;;;;;;;5124106;28;20796;-78
2023/06/02 15:00:52;;;;;;;4.73;4.43;;;;;;;;;;5121231;28;20466;-78
2023/06/02 15:03:31;;;;;;;5.50;5.00;;;;;;;;;;5122836;28;20488;-76
2023/06/02 15:06:14;;;;;;;5.50;5.10;;;;;;;;;;5121596;28;20438;-77
2023/06/02 15:08:44;;;;;;;5.93;5.33;;;;;;;;;;5123070;28;20427;-78
2023/06/02 15:11:30;;;;;;;5.50;5.20;;;;;;;;;;5122368;28;20494;-77
2023/06/02 15:14:17;;;;;;;;;;;;;;;;;;;;;
2023/06/02 15:17:10;;;;;;;5.60;5.10;;;;;;;;;;5124329;27;20434;-78
2023/06/02 15:22:58;;;;;;;5.60;4.90;;;;;;;;;;5146757;27;21036;-78
2023/06/02 15:25:41;;;;;;;5.23;4.83;;;;;;;;;;5149466;27;20511;-78
2023/06/02 15:28:15;;;;;;;5.17;4.77;;;;;;;;;;5148377;27;20504;-78
2023/06/02 15:30:55;;;;;;;4.77;4.47;;;;;;;;;;5148110;27;20462;-79
2023/06/02 15:33:54;;;;;;;5.00;4.70;;;;;;;;;;5146923;27;20556;-78
2023/06/02 15:39:52;;;;;;;5.73;5.33;;;;;;;;;;5121010;27;20426;-77
2023/06/02 15:42:36;;;;;;;5.47;5.07;;;;;;;;;;5153658;27;20851;-78
2023/06/02 15:45:17;;;;;;;6.97;5.20;;;;;;;;;;5147795;27;20537;-77
2023/06/02 15:47:50;;;;;;;5.33;4.87;;;;;;;;;;5139362;27;20466;-78